Time;durP1;ratioP1;P1;durP2;ratioP2;P2;SDS_P1;SDS_P2;PMS_P1;PMS_P2;Temp;Humidity;BMP_temperature;BMP_pressure;BME280_temperature;BME280_humidity;BME280_pressure;Samples;Min_cycle;Max_cycle;Signal;HPM_P1;HPM_P2
2020/02/22 00:01:03;;;;;;;3.75;2.15;;;;;;;5.33;48.8916;96355.67;;;;
2020/02/22 00:02:08;;;;;;;3.75;2.15;;;;;;;5.33;48.8916;96355.67;;;;
2020/02/22 00:03:09;;;;;;;4.4;2;;;;;;;5.19;48.5459;96333.69;;;;
2020/02/22 00:04:11;;;;;;;4.4;2;;;;;;;5.19;48.5459;96333.69;;;;
2020/02/22 00:05:12;;;;;;;4.4;2;;;;;;;5.19;48.5459;96333.69;;;;
2020/02/22 00:06:15;;;;;;;2.9;2.1;;;;;;;5.22;49.07031;96334.66;;;;
2020/02/22 00:07:16;;;;;;;2.9;2.1;;;;;;;5.22;49.07031;96334.66;;;;
2020/02/22 00:08:17;;;;;;;2.9;2.1;;;;;;;5.22;49.07031;96334.66;;;;
2020/02/22 00:09:20;;;;;;;2.9;2.1;;;;;;;5.22;49.07031;96334.66;;;;
2020/02/22 00:10:29;;;;;;;2.9;2.1;;;;;;;5.22;49.07031;96334.66;;;;
2020/02/22 00:11:30;;;;;;;2.9;2.1;;;;;;;5.22;49.07031;96334.66;;;;
2020/02/22 00:12:31;;;;;;;2.9;2.1;;;;;;;5.22;49.07031;96334.66;;;;
2020/02/22 00:13:31;;;;;;;2.9;2.1;;;;;;;5.22;49.07031;96334.66;;;;
2020/02/22 00:14:32;;;;;;;2.9;2.1;;;;;;;5.22;49.07031;96334.66;;;;
2020/02/22 00:15:32;;;;;;;2.9;2.1;;;;;;;5.22;49.07031;96334.66;;;;
2020/02/22 00:16:33;;;;;;;4.75;2.25;;;;;;;5.14;48.7207;96336.06;;;;
2020/02/22 00:17:33;;;;;;;4.75;2.25;;;;;;;5.14;48.7207;96336.06;;;;
2020/02/22 00:18:34;;;;;;;4.75;2.25;;;;;;;5.14;48.7207;96336.06;;;;
2020/02/22 00:19:34;;;;;;;4.15;2.1;;;;;;;5.17;49.29004;96336.97;;;;
2020/02/22 00:20:35;;;;;;;4.15;2.1;;;;;;;5.17;49.29004;96336.97;;;;
2020/02/22 00:21:35;;;;;;;4.15;2.1;;;;;;;5.17;49.29004;96336.97;;;;
2020/02/22 00:22:36;;;;;;;3.8;2;;;;;;;5.26;49.67188;96335.91;;;;
2020/02/22 00:23:36;;;;;;;3.8;2;;;;;;;5.26;49.67188;96335.91;;;;
2020/02/22 00:24:37;;;;;;;2.5;1.9;;;;;;;5.34;49.87305;96335.02;;;;
2020/02/22 00:25:37;;;;;;;2.5;1.9;;;;;;;5.34;49.87305;96335.02;;;;
2020/02/22 00:26:38;;;;;;;2.5;1.9;;;;;;;5.34;49.87305;96335.02;;;;
2020/02/22 00:27:40;;;;;;;2.5;1.9;;;;;;;5.34;49.87305;96335.02;;;;
2020/02/22 00:28:41;;;;;;;2.5;1.9;;;;;;;5.34;49.87305;96335.02;;;;
2020/02/22 00:29:41;;;;;;;2.5;1.9;;;;;;;5.34;49.87305;96335.02;;;;
2020/02/22 00:30:42;;;;;;;2.5;1.9;;;;;;;5.34;49.87305;96335.02;;;;
2020/02/22 00:31:49;;;;;;;2.5;1.9;;;;;;;5.34;49.87305;96335.02;;;;
2020/02/22 00:32:57;;;;;;;2.5;1.9;;;;;;;5.34;49.87305;96335.02;;;;
2020/02/22 00:34:01;;;;;;;2.5;1.9;;;;;;;5.34;49.87305;96335.02;;;;
2020/02/22 00:35:01;;;;;;;2.4;1.8;;;;;;;5.22;49.2832;96338.67;;;;
2020/02/22 00:36:02;;;;;;;2.4;1.8;;;;;;;5.22;49.2832;96338.67;;;;
2020/02/22 00:37:04;;;;;;;2.4;1.8;;;;;;;5.22;49.2832;96338.67;;;;
2020/02/22 00:38:05;;;;;;;3.15;1.8;;;;;;;5.25;49.79883;96342.78;;;;
2020/02/22 00:39:10;;;;;;;3.15;1.8;;;;;;;5.25;49.79883;96342.78;;;;
2020/02/22 00:40:11;;;;;;;3.15;1.8;;;;;;;5.25;49.79883;96342.78;;;;
2020/02/22 00:41:11;;;;;;;3.15;1.8;;;;;;;5.25;49.79883;96342.78;;;;
2020/02/22 00:42:16;;;;;;;3.15;1.8;;;;;;;5.25;49.79883;96342.78;;;;
2020/02/22 00:43:20;;;;;;;3.15;1.8;;;;;;;5.25;49.79883;96342.78;;;;
2020/02/22 00:44:29;;;;;;;3.15;1.8;;;;;;;5.25;49.79883;96342.78;;;;
2020/02/22 00:45:38;;;;;;;3.15;1.8;;;;;;;5.25;49.79883;96342.78;;;;
2020/02/22 00:46:44;;;;;;;3.15;1.8;;;;;;;5.25;49.79883;96342.78;;;;
2020/02/22 00:47:52;;;;;;;3.15;1.8;;;;;;;5.25;49.79883;96342.78;;;;
2020/02/22 00:49:01;;;;;;;4;2.6;;;;;;;5.18;49.34375;96326.15;;;;
2020/02/22 00:50:05;;;;;;;4;2.6;;;;;;;5.18;49.34375;96326.15;;;;
2020/02/22 00:51:08;;;;;;;6.45;2.9;;;;;;;5.22;49.85938;96327.89;;;;
2020/02/22 00:52:13;;;;;;;6.45;2.9;;;;;;;5.22;49.85938;96327.89;;;;
2020/02/22 00:53:16;;;;;;;6.45;2.9;;;;;;;5.22;49.85938;96327.89;;;;
2020/02/22 00:54:20;;;;;;;6.45;2.9;;;;;;;5.22;49.85938;96327.89;;;;
2020/02/22 00:55:31;;;;;;;6.45;2.9;;;;;;;5.22;49.85938;96327.89;;;;
2020/02/22 00:56:41;;;;;;;6.45;2.9;;;;;;;5.22;49.85938;96327.89;;;;
2020/02/22 00:57:50;;;;;;;6.45;2.9;;;;;;;5.22;49.85938;96327.89;;;;
2020/02/22 00:58:56;;;;;;;6.45;2.9;;;;;;;5.22;49.85938;96327.89;;;;
2020/02/22 01:00:04;;;;;;;6.45;2.9;;;;;;;5.22;49.85938;96327.89;;;;
2020/02/22 01:01:20;;;;;;;6.45;2.9;;;;;;;5.22;49.85938;96327.89;;;;
2020/02/22 01:02:26;;;;;;;3.25;1.8;;;;;;;5.13;49.5293;96313.81;;;;
2020/02/22 01:03:26;;;;;;;3.25;1.8;;;;;;;5.13;49.5293;96313.81;;;;
2020/02/22 01:04:27;;;;;;;2.85;2.25;;;;;;;5.15;50.28809;96309.54;;;;
2020/02/22 01:05:28;;;;;;;2.85;2.25;;;;;;;5.15;50.28809;96309.54;;;;
2020/02/22 01:06:33;;;;;;;2.85;2.25;;;;;;;5.15;50.28809;96309.54;;;;
2020/02/22 01:07:39;;;;;;;2.85;2.25;;;;;;;5.15;50.28809;96309.54;;;;
2020/02/22 01:08:40;;;;;;;2.85;2.25;;;;;;;5.15;50.28809;96309.54;;;;
2020/02/22 01:09:41;;;;;;;2.85;2.25;;;;;;;5.15;50.28809;96309.54;;;;
2020/02/22 01:10:47;;;;;;;2.85;2.25;;;;;;;5.15;50.28809;96309.54;;;;
2020/02/22 01:11:49;;;;;;;2.85;2.25;;;;;;;5.15;50.28809;96309.54;;;;
2020/02/22 01:12:52;;;;;;;2.85;2.25;;;;;;;5.15;50.28809;96309.54;;;;
2020/02/22 01:13:56;;;;;;;2.85;2.25;;;;;;;5.15;50.28809;96309.54;;;;
2020/02/22 01:14:56;;;;;;;4.1;2;;;;;;;5.04;49.82813;96299.24;;;;
2020/02/22 01:16:06;;;;;;;4.1;2;;;;;;;5.04;49.82813;96299.24;;;;
2020/02/22 01:17:07;;;;;;;4.1;2;;;;;;;5.04;49.82813;96299.24;;;;
2020/02/22 01:18:08;;;;;;;3.2;2.2;;;;;;;5.06;50.43555;96304.41;;;;
2020/02/22 01:19:11;;;;;;;3.2;2.2;;;;;;;5.06;50.43555;96304.41;;;;
2020/02/22 01:20:13;;;;;;;3.2;2.2;;;;;;;5.06;50.43555;96304.41;;;;
2020/02/22 01:21:14;;;;;;;3.2;2.2;;;;;;;5.06;50.43555;96304.41;;;;
2020/02/22 01:22:17;;;;;;;3.2;2.2;;;;;;;5.06;50.43555;96304.41;;;;
2020/02/22 01:23:22;;;;;;;3.2;2.2;;;;;;;5.06;50.43555;96304.41;;;;
2020/02/22 01:24:27;;;;;;;3.2;2.2;;;;;;;5.06;50.43555;96304.41;;;;
2020/02/22 01:25:37;;;;;;;3.2;2.2;;;;;;;5.06;50.43555;96304.41;;;;
2020/02/22 01:28:30;;;;;;;3.3;2.15;;;;;;;4.91;50.02539;96298.55;;;;
2020/02/22 01:29:37;;;;;;;3.3;2.15;;;;;;;4.91;50.02539;96298.55;;;;
2020/02/22 01:30:40;;;;;;;3.35;2.3;;;;;;;4.93;50.64453;96291.61;;;;
2020/02/22 01:31:49;;;;;;;3.35;2.3;;;;;;;4.93;50.64453;96291.61;;;;
2020/02/22 01:32:57;;;;;;;3.35;2.3;;;;;;;4.93;50.64453;96291.61;;;;
2020/02/22 01:34:06;;;;;;;3.35;2.3;;;;;;;4.93;50.64453;96291.61;;;;
2020/02/22 01:35:06;;;;;;;3.35;2.3;;;;;;;4.93;50.64453;96291.61;;;;
2020/02/22 01:36:08;;;;;;;3.35;2.3;;;;;;;4.93;50.64453;96291.61;;;;
2020/02/22 01:37:09;;;;;;;3.35;2.3;;;;;;;4.93;50.64453;96291.61;;;;
2020/02/22 01:42:22;;;;;;;3.25;2;;;;;;;4.83;50.28125;96302.62;;;;
2020/02/22 01:44:05;;;;;;;3.8;2;;;;;;;4.86;50.87109;96301.35;;;;
2020/02/22 01:49:26;;;;;;;3.8;2;;;;;;;4.86;50.87109;96301.35;;;;
2020/02/22 01:50:39;;;;;;;3.8;2;;;;;;;4.86;50.87109;96301.35;;;;
2020/02/22 01:52:02;;;;;;;3.8;2;;;;;;;4.86;50.87109;96301.35;;;;
2020/02/22 01:53:21;;;;;;;3.8;2;;;;;;;4.86;50.87109;96301.35;;;;
2020/02/22 01:54:39;;;;;;;4.199999;2.1;;;;;;;4.82;50.51465;96286.76;;;;
2020/02/22 01:59:58;;;;;;;3.600001;2.2;;;;;;;4.86;51.16699;96282.73;;;;
2020/02/22 02:01:06;;;;;;;3.600001;2.2;;;;;;;4.86;51.16699;96282.73;;;;
2020/02/22 02:02:07;;;;;;;3.600001;2.2;;;;;;;4.86;51.16699;96282.73;;;;
2020/02/22 02:03:17;;;;;;;3.600001;2.2;;;;;;;4.86;51.16699;96282.73;;;;
2020/02/22 02:05:51;;;;;;;3.600001;2.2;;;;;;;4.86;51.16699;96282.73;;;;
2020/02/22 02:06:59;;;;;;;3.600001;2.2;;;;;;;4.86;51.16699;96282.73;;;;
2020/02/22 02:08:01;;;;;;;3.6;2.5;;;;;;;4.77;50.71094;96273.89;;;;
2020/02/22 02:09:04;;;;;;;3.6;2.5;;;;;;;4.77;50.71094;96273.89;;;;
2020/02/22 02:10:11;;;;;;;3.6;2.5;;;;;;;4.77;50.71094;96273.89;;;;
2020/02/22 02:11:12;;;;;;;4.75;2.900001;;;;;;;4.77;51.39063;96270.79;;;;
2020/02/22 02:12:24;;;;;;;4.75;2.900001;;;;;;;4.77;51.39063;96270.79;;;;
2020/02/22 02:13:45;;;;;;;6.5;2.9;;;;;;;4.78;51.85938;96271.03;;;;
2020/02/22 02:15:02;;;;;;;6.5;2.9;;;;;;;4.78;51.85938;96271.03;;;;
2020/02/22 02:16:08;;;;;;;5.35;2.8;;;;;;;4.76;52.25977;96263.79;;;;
2020/02/22 02:21:17;;;;;;;5.35;2.8;;;;;;;4.76;52.25977;96263.79;;;;
2020/02/22 02:22:39;;;;;;;5.35;2.8;;;;;;;4.76;52.25977;96263.79;;;;
2020/02/22 02:24:43;;;;;;;5.35;2.8;;;;;;;4.76;52.25977;96263.79;;;;
2020/02/22 02:26:02;;;;;;;5.35;2.8;;;;;;;4.76;52.25977;96263.79;;;;
2020/02/22 02:27:25;;;;;;;4.95;2.8;;;;;;;4.04;52.02539;96252.01;;;;
2020/02/22 02:28:42;;;;;;;4.95;2.8;;;;;;;4.04;52.02539;96252.01;;;;
2020/02/22 02:29:58;;;;;;;4.95;2.8;;;;;;;4.04;52.02539;96252.01;;;;
2020/02/22 02:31:25;;;;;;;4.95;2.8;;;;;;;4.04;52.02539;96252.01;;;;
2020/02/22 02:32:51;;;;;;;4.95;2.8;;;;;;;4.04;52.02539;96252.01;;;;
2020/02/22 02:34:52;;;;;;;4.95;2.8;;;;;;;4.04;52.02539;96252.01;;;;
2020/02/22 02:36:06;;;;;;;4.95;2.8;;;;;;;4.04;52.02539;96252.01;;;;
2020/02/22 02:37:16;;;;;;;4.75;2.55;;;;;;;3.36;52.31445;96240.58;;;;
2020/02/22 02:38:34;;;;;;;4.75;2.55;;;;;;;3.36;52.31445;96240.58;;;;
2020/02/22 02:42:20;;;;;;;4.75;2.55;;;;;;;3.36;52.31445;96240.58;;;;
2020/02/22 02:43:41;;;;;;;4.75;2.55;;;;;;;3.36;52.31445;96240.58;;;;
2020/02/22 02:45:02;;;;;;;4.75;2.55;;;;;;;3.36;52.31445;96240.58;;;;
2020/02/22 02:47:28;;;;;;;4.75;2.55;;;;;;;3.36;52.31445;96240.58;;;;
2020/02/22 02:49:01;;;;;;;4.2;2.3;;;;;;;2.73;52.76465;96233.31;;;;
2020/02/22 02:50:17;;;;;;;4.849999;2.65;;;;;;;2.65;53.72852;96232.79;;;;
2020/02/22 02:51:33;;;;;;;4.849999;2.65;;;;;;;2.65;53.72852;96232.79;;;;
2020/02/22 02:53:01;;;;;;;4.849999;2.65;;;;;;;2.65;53.72852;96232.79;;;;
2020/02/22 02:54:06;;;;;;;4.849999;2.65;;;;;;;2.65;53.72852;96232.79;;;;
2020/02/22 02:55:28;;;;;;;4.849999;2.65;;;;;;;2.65;53.72852;96232.79;;;;
2020/02/22 02:56:41;;;;;;;4.849999;2.65;;;;;;;2.65;53.72852;96232.79;;;;
2020/02/22 02:58:01;;;;;;;4.849999;2.65;;;;;;;2.65;53.72852;96232.79;;;;
2020/02/22 02:59:48;;;;;;;4.849999;2.65;;;;;;;2.65;53.72852;96232.79;;;;
2020/02/22 03:01:01;;;;;;;3.05;2.35;;;;;;;2.19;53.6377;96222.27;;;;
2020/02/22 03:02:04;;;;;;;3.05;2.35;;;;;;;2.19;53.6377;96222.27;;;;
2020/02/22 03:03:08;;;;;;;3.05;2.35;;;;;;;2.19;53.6377;96222.27;;;;
2020/02/22 03:04:45;;;;;;;4.2;2.55;;;;;;;2.14;54.60352;96221.92;;;;
2020/02/22 03:06:00;;;;;;;4.2;2.55;;;;;;;2.14;54.60352;96221.92;;;;
2020/02/22 03:07:09;;;;;;;4.2;2.55;;;;;;;2.14;54.60352;96221.92;;;;
2020/02/22 03:08:18;;;;;;;4.2;2.55;;;;;;;2.14;54.60352;96221.92;;;;
2020/02/22 03:09:35;;;;;;;4.2;2.55;;;;;;;2.14;54.60352;96221.92;;;;
2020/02/22 03:10:35;;;;;;;4.2;2.55;;;;;;;2.14;54.60352;96221.92;;;;
2020/02/22 03:11:47;;;;;;;4.2;2.55;;;;;;;2.14;54.60352;96221.92;;;;
2020/02/22 03:13:16;;;;;;;4.2;2.55;;;;;;;2.14;54.60352;96221.92;;;;
2020/02/22 03:14:31;;;;;;;3.8;2.4;;;;;;;1.72;54.2959;96215.32;;;;
2020/02/22 03:15:45;;;;;;;3.8;2.4;;;;;;;1.72;54.2959;96215.32;;;;
2020/02/22 03:16:55;;;;;;;3.8;2.4;;;;;;;1.72;54.2959;96215.32;;;;
2020/02/22 03:18:01;;;;;;;3.8;2.4;;;;;;;1.72;54.2959;96215.32;;;;
2020/02/22 03:19:35;;;;;;;3.8;2.4;;;;;;;1.72;54.2959;96215.32;;;;
2020/02/22 03:20:44;;;;;;;3.8;2.4;;;;;;;1.72;54.2959;96215.32;;;;
2020/02/22 03:21:56;;;;;;;3.8;2.4;;;;;;;1.72;54.2959;96215.32;;;;
2020/02/22 03:23:05;;;;;;;3.8;2.4;;;;;;;1.72;54.2959;96215.32;;;;
2020/02/22 03:24:20;;;;;;;3.8;2.4;;;;;;;1.72;54.2959;96215.32;;;;
2020/02/22 03:25:33;;;;;;;5.25;2.25;;;;;;;1.37;54.41992;96220.7;;;;
2020/02/22 03:26:45;;;;;;;5.25;2.25;;;;;;;1.37;54.41992;96220.7;;;;
2020/02/22 03:27:54;;;;;;;5.25;2.25;;;;;;;1.37;54.41992;96220.7;;;;
2020/02/22 03:29:12;;;;;;;5.25;2.25;;;;;;;1.37;54.41992;96220.7;;;;
2020/02/22 03:30:32;;;;;;;5.25;2.25;;;;;;;1.37;54.41992;96220.7;;;;
2020/02/22 03:31:43;;;;;;;5.25;2.25;;;;;;;1.37;54.41992;96220.7;;;;
2020/02/22 03:32:49;;;;;;;5.25;2.25;;;;;;;1.37;54.41992;96220.7;;;;
2020/02/22 03:34:00;;;;;;;5.25;2.25;;;;;;;1.37;54.41992;96220.7;;;;
2020/02/22 03:35:02;;;;;;;5.25;2.25;;;;;;;1.37;54.41992;96220.7;;;;
2020/02/22 03:36:16;;;;;;;4.3;1.9;;;;;;;1.03;54.52539;96221.97;;;;
2020/02/22 03:37:30;;;;;;;4.3;1.9;;;;;;;1.03;54.52539;96221.97;;;;
2020/02/22 03:38:48;;;;;;;4.3;1.9;;;;;;;1.03;54.52539;96221.97;;;;
2020/02/22 03:40:01;;;;;;;4.3;1.9;;;;;;;1.03;54.52539;96221.97;;;;
2020/02/22 03:41:08;;;;;;;4.3;1.9;;;;;;;1.03;54.52539;96221.97;;;;
2020/02/22 03:42:16;;;;;;;4.3;1.9;;;;;;;1.03;54.52539;96221.97;;;;
2020/02/22 03:43:25;;;;;;;4.3;1.9;;;;;;;1.03;54.52539;96221.97;;;;
2020/02/22 03:44:38;;;;;;;4.3;1.9;;;;;;;1.03;54.52539;96221.97;;;;
2020/02/22 03:46:21;;;;;;;3.2;2;;;;;;;0.81;54.71582;96227.86;;;;
2020/02/22 03:47:37;;;;;;;3.2;2;;;;;;;0.81;54.71582;96227.86;;;;
2020/02/22 03:49:23;;;;;;;3.2;2;;;;;;;0.81;54.71582;96227.86;;;;
2020/02/22 03:50:39;;;;;;;3.2;2;;;;;;;0.81;54.71582;96227.86;;;;
2020/02/22 03:51:51;;;;;;;3.2;2;;;;;;;0.81;54.71582;96227.86;;;;
2020/02/22 03:54:10;;;;;;;3.2;2;;;;;;;0.81;54.71582;96227.86;;;;
2020/02/22 03:55:45;;;;;;;3.2;2;;;;;;;0.81;54.71582;96227.86;;;;
2020/02/22 03:57:07;;;;;;;3.7;2.05;;;;;;;0.52;54.83789;96234.74;;;;
2020/02/22 03:58:23;;;;;;;3.7;2.05;;;;;;;0.52;54.83789;96234.74;;;;
2020/02/22 03:59:33;;;;;;;3.7;2.05;;;;;;;0.52;54.83789;96234.74;;;;
2020/02/22 04:01:08;;;;;;;3.7;2.05;;;;;;;0.52;54.83789;96234.74;;;;
2020/02/22 04:02:17;;;;;;;3.7;2.05;;;;;;;0.52;54.83789;96234.74;;;;
2020/02/22 04:03:24;;;;;;;3.7;2.05;;;;;;;0.52;54.83789;96234.74;;;;
2020/02/22 04:04:29;;;;;;;3.7;2.05;;;;;;;0.52;54.83789;96234.74;;;;
2020/02/22 04:05:31;;;;;;;3.7;2.05;;;;;;;0.52;54.83789;96234.74;;;;
2020/02/22 04:06:37;;;;;;;3.7;2.05;;;;;;;0.52;54.83789;96234.74;;;;
2020/02/22 04:07:38;;;;;;;6.35;2.4;;;;;;;0.39;55.11426;96223.64;;;;
2020/02/22 04:08:40;;;;;;;6.35;2.4;;;;;;;0.39;55.11426;96223.64;;;;
2020/02/22 04:09:45;;;;;;;6.35;2.4;;;;;;;0.39;55.11426;96223.64;;;;
2020/02/22 04:10:46;;;;;;;6.35;2.4;;;;;;;0.39;55.11426;96223.64;;;;
2020/02/22 04:11:50;;;;;;;6.35;2.4;;;;;;;0.39;55.11426;96223.64;;;;
2020/02/22 04:13:01;;;;;;;6.35;2.4;;;;;;;0.39;55.11426;96223.64;;;;
2020/02/22 04:15:20;;;;;;;6.35;2.4;;;;;;;0.39;55.11426;96223.64;;;;
2020/02/22 04:16:46;;;;;;;6.35;2.4;;;;;;;0.39;55.11426;96223.64;;;;
2020/02/22 04:18:00;;;;;;;6.400001;2.35;;;;;;;0.25;55.0127;96207.81;;;;
2020/02/22 04:19:43;;;;;;;6.400001;2.35;;;;;;;0.25;55.0127;96207.81;;;;
2020/02/22 04:20:53;;;;;;;6.400001;2.35;;;;;;;0.25;55.0127;96207.81;;;;
2020/02/22 04:26:08;;;;;;;6.400001;2.35;;;;;;;0.25;55.0127;96207.81;;;;
2020/02/22 04:27:15;;;;;;;6.400001;2.35;;;;;;;0.25;55.0127;96207.81;;;;
2020/02/22 04:28:26;;;;;;;2.8;1.9;;;;;;;0.14;54.97656;96215.08;;;;
2020/02/22 04:29:48;;;;;;;2.8;1.9;;;;;;;0.14;54.97656;96215.08;;;;
2020/02/22 04:31:02;;;;;;;2.8;1.9;;;;;;;0.14;54.97656;96215.08;;;;
2020/02/22 04:32:15;;;;;;;2.8;1.9;;;;;;;0.14;54.97656;96215.08;;;;
2020/02/22 04:33:24;;;;;;;2.8;1.9;;;;;;;0.14;54.97656;96215.08;;;;
2020/02/22 04:34:32;;;;;;;2.8;1.9;;;;;;;0.14;54.97656;96215.08;;;;
2020/02/22 04:35:42;;;;;;;2.8;1.9;;;;;;;0.14;54.97656;96215.08;;;;
2020/02/22 04:36:58;;;;;;;2.8;1.9;;;;;;;0.14;54.97656;96215.08;;;;
2020/02/22 04:38:11;;;;;;;2.8;1.9;;;;;;;0.14;54.97656;96215.08;;;;
2020/02/22 04:39:23;;;;;;;3.2;1.75;;;;;;;-0.09;55.17871;96220.89;;;;
2020/02/22 04:40:26;;;;;;;3.2;1.75;;;;;;;-0.09;55.17871;96220.89;;;;
2020/02/22 04:41:35;;;;;;;3.2;1.75;;;;;;;-0.09;55.17871;96220.89;;;;
2020/02/22 04:42:50;;;;;;;2.75;2.1;;;;;;;-0.09;56.02832;96228.85;;;;
2020/02/22 04:44:02;;;;;;;2.75;2.1;;;;;;;-0.09;56.02832;96228.85;;;;
2020/02/22 04:45:15;;;;;;;2.75;2.1;;;;;;;-0.09;56.02832;96228.85;;;;
2020/02/22 04:46:26;;;;;;;2.75;2.1;;;;;;;-0.09;56.02832;96228.85;;;;
2020/02/22 04:47:35;;;;;;;2.75;2.1;;;;;;;-0.09;56.02832;96228.85;;;;
2020/02/22 04:48:51;;;;;;;2.75;2.1;;;;;;;-0.09;56.02832;96228.85;;;;
2020/02/22 04:49:55;;;;;;;2.75;2.1;;;;;;;-0.09;56.02832;96228.85;;;;
2020/02/22 04:51:03;;;;;;;2.75;2.1;;;;;;;-0.09;56.02832;96228.85;;;;
2020/02/22 04:52:13;;;;;;;2.75;2.1;;;;;;;-0.09;56.02832;96228.85;;;;
2020/02/22 04:53:22;;;;;;;2.75;1.7;;;;;;;-0.27;56.03613;96247.86;;;;
2020/02/22 04:54:31;;;;;;;2.75;1.7;;;;;;;-0.27;56.03613;96247.86;;;;
2020/02/22 04:55:38;;;;;;;2.75;1.7;;;;;;;-0.27;56.03613;96247.86;;;;
2020/02/22 04:56:43;;;;;;;2.75;1.7;;;;;;;-0.27;56.03613;96247.86;;;;
2020/02/22 04:57:53;;;;;;;2.75;1.7;;;;;;;-0.27;56.03613;96247.86;;;;
2020/02/22 04:58:59;;;;;;;2.75;1.7;;;;;;;-0.27;56.03613;96247.86;;;;
2020/02/22 05:00:04;;;;;;;2.75;1.7;;;;;;;-0.27;56.03613;96247.86;;;;
2020/02/22 05:01:07;;;;;;;2.75;1.7;;;;;;;-0.27;56.03613;96247.86;;;;
2020/02/22 05:02:17;;;;;;;2.75;1.7;;;;;;;-0.27;56.03613;96247.86;;;;
2020/02/22 05:03:28;;;;;;;4.8;2.3;;;;;;;-0.25;55.80957;96256;;;;
2020/02/22 05:04:33;;;;;;;4.8;2.3;;;;;;;-0.25;55.80957;96256;;;;
2020/02/22 05:05:47;;;;;;;4.8;2.3;;;;;;;-0.25;55.80957;96256;;;;
2020/02/22 05:07:06;;;;;;;4.8;2.3;;;;;;;-0.25;55.80957;96256;;;;
2020/02/22 05:08:17;;;;;;;4.8;2.3;;;;;;;-0.25;55.80957;96256;;;;
2020/02/22 05:09:27;;;;;;;4.8;2.3;;;;;;;-0.25;55.80957;96256;;;;
2020/02/22 05:10:43;;;;;;;4.8;2.3;;;;;;;-0.25;55.80957;96256;;;;
2020/02/22 05:12:11;;;;;;;4.8;2.3;;;;;;;-0.25;55.80957;96256;;;;
2020/02/22 05:13:19;;;;;;;4.8;2.3;;;;;;;-0.25;55.80957;96256;;;;
2020/02/22 05:14:22;;;;;;;2.8;1.9;;;;;;;-0.21;55.63574;96256.54;;;;
2020/02/22 05:15:30;;;;;;;2.8;1.9;;;;;;;-0.21;55.63574;96256.54;;;;
2020/02/22 05:16:31;;;;;;;2.8;1.9;;;;;;;-0.21;55.63574;96256.54;;;;
2020/02/22 05:17:36;;;;;;;2.8;1.9;;;;;;;-0.21;55.63574;96256.54;;;;
2020/02/22 05:18:43;;;;;;;2.8;1.9;;;;;;;-0.21;55.63574;96256.54;;;;
2020/02/22 05:19:53;;;;;;;2.8;1.9;;;;;;;-0.21;55.63574;96256.54;;;;
2020/02/22 05:21:03;;;;;;;2.8;1.9;;;;;;;-0.21;55.63574;96256.54;;;;
2020/02/22 05:22:09;;;;;;;2.8;1.9;;;;;;;-0.21;55.63574;96256.54;;;;
2020/02/22 05:23:14;;;;;;;2.8;1.9;;;;;;;-0.21;55.63574;96256.54;;;;
2020/02/22 05:24:26;;;;;;;8.1;4.15;;;;;;;-0.13;55.53027;96250.44;;;;
2020/02/22 05:25:37;;;;;;;8.1;4.15;;;;;;;-0.13;55.53027;96250.44;;;;
2020/02/22 05:27:20;;;;;;;8.1;4.15;;;;;;;-0.13;55.53027;96250.44;;;;
2020/02/22 05:28:28;;;;;;;8.1;4.15;;;;;;;-0.13;55.53027;96250.44;;;;
2020/02/22 05:29:52;;;;;;;8.1;4.15;;;;;;;-0.13;55.53027;96250.44;;;;
2020/02/22 05:31:01;;;;;;;8.1;4.15;;;;;;;-0.13;55.53027;96250.44;;;;
2020/02/22 05:32:07;;;;;;;8.1;4.15;;;;;;;-0.13;55.53027;96250.44;;;;
2020/02/22 05:33:24;;;;;;;8.1;4.15;;;;;;;-0.13;55.53027;96250.44;;;;
2020/02/22 05:34:30;;;;;;;8.1;4.15;;;;;;;-0.13;55.53027;96250.44;;;;
2020/02/22 05:35:34;;;;;;;3.8;2.2;;;;;;;-0.13;55.77148;96224.39;;;;
2020/02/22 05:36:46;;;;;;;3.8;2.2;;;;;;;-0.13;55.77148;96224.39;;;;
2020/02/22 05:37:48;;;;;;;3.8;2.2;;;;;;;-0.13;55.77148;96224.39;;;;
2020/02/22 05:38:49;;;;;;;3.8;2.2;;;;;;;-0.13;55.77148;96224.39;;;;
2020/02/22 05:40:00;;;;;;;3.8;2.2;;;;;;;-0.13;55.77148;96224.39;;;;
2020/02/22 05:41:04;;;;;;;3.8;2.2;;;;;;;-0.13;55.77148;96224.39;;;;
2020/02/22 05:42:16;;;;;;;3.8;2.2;;;;;;;-0.13;55.77148;96224.39;;;;
2020/02/22 05:43:27;;;;;;;3.8;2.2;;;;;;;-0.13;55.77148;96224.39;;;;
2020/02/22 05:44:35;;;;;;;3.8;2.2;;;;;;;-0.13;55.77148;96224.39;;;;
2020/02/22 05:45:48;;;;;;;3.1;2.2;;;;;;;-0.1;55.72266;96213.89;;;;
2020/02/22 05:46:50;;;;;;;3.1;2.2;;;;;;;-0.1;55.72266;96213.89;;;;
2020/02/22 05:49:53;;;;;;;3.1;2.2;;;;;;;-0.1;55.72266;96213.89;;;;
2020/02/22 05:50:59;;;;;;;3.1;2.2;;;;;;;-0.1;55.72266;96213.89;;;;
2020/02/22 05:52:02;;;;;;;3.1;2.2;;;;;;;-0.1;55.72266;96213.89;;;;
2020/02/22 05:53:03;;;;;;;3.1;2.2;;;;;;;-0.1;55.72266;96213.89;;;;
2020/02/22 05:54:07;;;;;;;3.1;2.2;;;;;;;-0.1;55.72266;96213.89;;;;
2020/02/22 05:55:08;;;;;;;3.1;2.2;;;;;;;-0.1;55.72266;96213.89;;;;
2020/02/22 05:56:14;;;;;;;4.35;2.4;;;;;;;-0.24;55.73535;96214.39;;;;
2020/02/22 05:57:18;;;;;;;4.35;2.4;;;;;;;-0.24;55.73535;96214.39;;;;
2020/02/22 05:58:30;;;;;;;4.35;2.4;;;;;;;-0.24;55.73535;96214.39;;;;
2020/02/22 05:59:43;;;;;;;4.35;2.4;;;;;;;-0.24;55.73535;96214.39;;;;
2020/02/22 06:00:50;;;;;;;4.35;2.4;;;;;;;-0.24;55.73535;96214.39;;;;
2020/02/22 06:02:05;;;;;;;4.35;2.4;;;;;;;-0.24;55.73535;96214.39;;;;
2020/02/22 06:03:16;;;;;;;4.35;2.4;;;;;;;-0.24;55.73535;96214.39;;;;
2020/02/22 06:04:24;;;;;;;4.35;2.4;;;;;;;-0.24;55.73535;96214.39;;;;
2020/02/22 06:05:35;;;;;;;4.35;2.4;;;;;;;-0.24;55.73535;96214.39;;;;
2020/02/22 06:06:40;;;;;;;2.6;1.85;;;;;;;-0.26;56.05957;96183.61;;;;
2020/02/22 06:07:50;;;;;;;2.6;1.85;;;;;;;-0.26;56.05957;96183.61;;;;
2020/02/22 06:08:57;;;;;;;2.6;1.85;;;;;;;-0.26;56.05957;96183.61;;;;
2020/02/22 06:10:03;;;;;;;2.6;1.85;;;;;;;-0.26;56.05957;96183.61;;;;
2020/02/22 06:11:08;;;;;;;2.6;1.85;;;;;;;-0.26;56.05957;96183.61;;;;
2020/02/22 06:12:15;;;;;;;2.6;1.85;;;;;;;-0.26;56.05957;96183.61;;;;
2020/02/22 06:13:19;;;;;;;2.6;1.85;;;;;;;-0.26;56.05957;96183.61;;;;
2020/02/22 06:14:24;;;;;;;2.6;1.85;;;;;;;-0.26;56.05957;96183.61;;;;
2020/02/22 06:15:29;;;;;;;2.6;1.85;;;;;;;-0.26;56.05957;96183.61;;;;
2020/02/22 06:16:35;;;;;;;2.6;1.85;;;;;;;-0.26;56.05957;96183.61;;;;
2020/02/22 06:17:39;;;;;;;3.15;1.75;;;;;;;-0.18;56.16406;96178.8;;;;
2020/02/22 06:18:52;;;;;;;3.15;1.75;;;;;;;-0.18;56.16406;96178.8;;;;
2020/02/22 06:19:57;;;;;;;3.15;1.75;;;;;;;-0.18;56.16406;96178.8;;;;
2020/02/22 06:21:07;;;;;;;3.15;1.75;;;;;;;-0.18;56.16406;96178.8;;;;
2020/02/22 06:22:24;;;;;;;3.15;1.75;;;;;;;-0.18;56.16406;96178.8;;;;
2020/02/22 06:27:29;;;;;;;3.15;1.75;;;;;;;-0.18;56.16406;96178.8;;;;
2020/02/22 06:28:35;;;;;;;4.35;1.8;;;;;;;-0.18;56.09961;96189.92;;;;
2020/02/22 06:29:42;;;;;;;4.35;1.8;;;;;;;-0.18;56.09961;96189.92;;;;
2020/02/22 06:30:46;;;;;;;4.35;1.8;;;;;;;-0.18;56.09961;96189.92;;;;
2020/02/22 06:31:53;;;;;;;4.35;1.8;;;;;;;-0.18;56.09961;96189.92;;;;
2020/02/22 06:32:59;;;;;;;4.35;1.8;;;;;;;-0.18;56.09961;96189.92;;;;
2020/02/22 06:34:06;;;;;;;4.35;1.8;;;;;;;-0.18;56.09961;96189.92;;;;
2020/02/22 06:35:12;;;;;;;4.35;1.8;;;;;;;-0.18;56.09961;96189.92;;;;
2020/02/22 06:36:15;;;;;;;4.35;1.8;;;;;;;-0.18;56.09961;96189.92;;;;
2020/02/22 06:37:15;;;;;;;4.35;1.8;;;;;;;-0.18;56.09961;96189.92;;;;
2020/02/22 06:38:17;;;;;;;4.35;1.8;;;;;;;-0.18;56.09961;96189.92;;;;
2020/02/22 06:39:20;;;;;;;3.55;1.85;;;;;;;-0.3;56.26367;96198.14;;;;
2020/02/22 06:40:22;;;;;;;3.55;1.85;;;;;;;-0.3;56.26367;96198.14;;;;
2020/02/22 06:41:25;;;;;;;3.55;1.85;;;;;;;-0.3;56.26367;96198.14;;;;
2020/02/22 06:42:27;;;;;;;3.55;1.85;;;;;;;-0.3;56.26367;96198.14;;;;
2020/02/22 06:43:43;;;;;;;3.55;1.85;;;;;;;-0.3;56.26367;96198.14;;;;
2020/02/22 06:44:48;;;;;;;3.55;1.85;;;;;;;-0.3;56.26367;96198.14;;;;
2020/02/22 06:45:58;;;;;;;3.55;1.85;;;;;;;-0.3;56.26367;96198.14;;;;
2020/02/22 06:47:10;;;;;;;3.55;1.85;;;;;;;-0.3;56.26367;96198.14;;;;
2020/02/22 06:48:25;;;;;;;3.55;1.85;;;;;;;-0.3;56.26367;96198.14;;;;
2020/02/22 06:49:47;;;;;;;4.55;2.1;;;;;;;-0.27;56.41504;96214.17;;;;
2020/02/22 06:50:57;;;;;;;4.55;2.1;;;;;;;-0.27;56.41504;96214.17;;;;
2020/02/22 06:52:10;;;;;;;4.55;2.1;;;;;;;-0.27;56.41504;96214.17;;;;
2020/02/22 06:53:22;;;;;;;4.55;2.1;;;;;;;-0.27;56.41504;96214.17;;;;
2020/02/22 06:54:33;;;;;;;4.55;2.1;;;;;;;-0.27;56.41504;96214.17;;;;
2020/02/22 06:55:43;;;;;;;4.55;2.1;;;;;;;-0.27;56.41504;96214.17;;;;
2020/02/22 06:56:55;;;;;;;4.55;2.1;;;;;;;-0.27;56.41504;96214.17;;;;
2020/02/22 06:58:31;;;;;;;4.55;2.1;;;;;;;-0.27;56.41504;96214.17;;;;
2020/02/22 06:59:48;;;;;;;2.3;1.75;;;;;;;-0.26;56.32031;96203.08;;;;
2020/02/22 07:00:58;;;;;;;2.3;1.75;;;;;;;-0.26;56.32031;96203.08;;;;
2020/02/22 07:02:08;;;;;;;2.3;1.75;;;;;;;-0.26;56.32031;96203.08;;;;
2020/02/22 07:03:23;;;;;;;2.3;1.75;;;;;;;-0.26;56.32031;96203.08;;;;
2020/02/22 07:04:26;;;;;;;2.3;1.75;;;;;;;-0.26;56.32031;96203.08;;;;
2020/02/22 07:05:29;;;;;;;2.3;1.75;;;;;;;-0.26;56.32031;96203.08;;;;
2020/02/22 07:07:42;;;;;;;2.3;1.75;;;;;;;-0.26;56.32031;96203.08;;;;
2020/02/22 07:08:49;;;;;;;2.3;1.75;;;;;;;-0.26;56.32031;96203.08;;;;
2020/02/22 07:09:52;;;;;;;2.3;1.75;;;;;;;-0.26;56.32031;96203.08;;;;
2020/02/22 07:10:56;;;;;;;2.55;1.8;;;;;;;-0.08;56.37598;96210.17;;;;
2020/02/22 07:12:01;;;;;;;2.55;1.8;;;;;;;-0.08;56.37598;96210.17;;;;
2020/02/22 07:13:09;;;;;;;2.55;1.8;;;;;;;-0.08;56.37598;96210.17;;;;
2020/02/22 07:14:10;;;;;;;2.55;1.8;;;;;;;-0.08;56.37598;96210.17;;;;
2020/02/22 07:15:12;;;;;;;2.55;1.8;;;;;;;-0.08;56.37598;96210.17;;;;
2020/02/22 07:16:12;;;;;;;2.55;1.8;;;;;;;-0.08;56.37598;96210.17;;;;
2020/02/22 07:17:13;;;;;;;2.55;1.8;;;;;;;-0.08;56.37598;96210.17;;;;
2020/02/22 07:18:14;;;;;;;2.55;1.8;;;;;;;-0.08;56.37598;96210.17;;;;
2020/02/22 07:19:15;;;;;;;2.55;1.8;;;;;;;-0.08;56.37598;96210.17;;;;
2020/02/22 07:20:17;;;;;;;2.55;1.8;;;;;;;-0.08;56.37598;96210.17;;;;
2020/02/22 07:21:21;;;;;;;2.15;1.7;;;;;;;0.18;56.27441;96210.72;;;;